Time;durP1;ratioP1;P1;durP2;ratioP2;P2;SDS_P1;SDS_P2;PMS_P1;PMS_P2;Temp;Humidity;BMP_temperature;BMP_pressure;BME280_temperature;BME280_humidity;BME280_pressure;Samples;Min_cycle;Max_cycle;Signal;HPM_P1;HPM_P2
2021/07/20 00:06:40;;;;;;;14.8;7.7;;;;;;;17.72;100;98527.48;;;;
2021/07/20 00:16:40;;;;;;;9.9;6.2;;;;;;;17.59;100;98513.2;;;;
2021/07/20 00:26:40;;;;;;;11.6;8.4;;;;;;;17.36;100;98514.15;;;;
2021/07/20 00:36:40;;;;;;;14.3;7.6;;;;;;;17.27;100;98505.38;;;;
2021/07/20 00:46:39;;;;;;;12.6;7.4;;;;;;;17.19;100;98509.86;;;;
2021/07/20 00:56:39;;;;;;;12.8;7.8;;;;;;;17.26;100;98503.8;;;;
2021/07/20 01:06:39;;;;;;;11.5;8.5;;;;;;;17.36;100;98505.98;;;;
2021/07/20 01:16:38;;;;;;;17;10.8;;;;;;;17.28;100;98506.97;;;;
2021/07/20 01:26:38;;;;;;;13.7;10.7;;;;;;;17.24;100;98497.92;;;;
2021/07/20 01:36:38;;;;;;;16.5;10.8;;;;;;;17.15;100;98498.09;;;;
2021/07/20 01:46:37;;;;;;;13.2;8;;;;;;;16.93;100;98485.11;;;;
2021/07/20 01:56:37;;;;;;;14.5;9.6;;;;;;;16.82;100;98498.45;;;;
2021/07/20 02:16:36;;;;;;;16;11.2;;;;;;;16.54;100;98506.64;;;;
2021/07/20 02:26:36;;;;;;;14.4;11.2;;;;;;;16.59;100;98519.24;;;;
2021/07/20 02:36:35;;;;;;;20.2;10.8;;;;;;;16.54;100;98514.8;;;;
2021/07/20 02:46:35;;;;;;;21.6;11.7;;;;;;;16.6;100;98526.25;;;;
2021/07/20 02:56:34;;;;;;;14.7;11.4;;;;;;;16.51;100;98534.55;;;;
2021/07/20 03:06:34;;;;;;;15.4;12.2;;;;;;;16.41;100;98536.97;;;;
2021/07/20 03:16:33;;;;;;;15.7;11;;;;;;;16.37;100;98526;;;;
2021/07/20 03:26:34;;;;;;;14.8;12.8;;;;;;;16.32;100;98541.75;;;;
2021/07/20 03:36:32;;;;;;;21.4;12.5;;;;;;;16.24;100;98542.7;;;;
2021/07/20 03:46:32;;;;;;;19.6;12.1;;;;;;;16.18;100;98541.34;;;;
2021/07/20 03:56:31;;;;;;;12.8;9.7;;;;;;;16.06;100;98534.83;;;;
2021/07/20 04:06:31;;;;;;;18;12;;;;;;;15.98;100;98534.95;;;;
2021/07/20 04:16:31;;;;;;;15.2;11.8;;;;;;;15.86;100;98543.92;;;;
2021/07/20 04:26:30;;;;;;;18.9;14.1;;;;;;;15.81;100;98529.79;;;;
2021/07/20 04:36:30;;;;;;;13.5;10.7;;;;;;;15.67;100;98522;;;;
2021/07/20 04:46:29;;;;;;;13.4;9.7;;;;;;;15.89;100;98535.11;;;;
2021/07/20 04:56:29;;;;;;;15.1;11.1;;;;;;;15.9;100;98536.66;;;;
2021/07/20 05:06:28;;;;;;;16.3;9.6;;;;;;;15.97;100;98545.03;;;;
2021/07/20 05:16:28;;;;;;;15.9;10.5;;;;;;;15.96;100;98558.98;;;;
2021/07/20 05:26:28;;;;;;;13.4;11.3;;;;;;;16.05;100;98560.43;;;;
2021/07/20 05:36:27;;;;;;;11;9.4;;;;;;;16.23;100;98555.51;;;;
2021/07/20 05:46:27;;;;;;;13.6;9.7;;;;;;;16.44;100;98568.92;;;;
2021/07/20 05:56:26;;;;;;;15.2;10.3;;;;;;;16.75;100;98566.31;;;;
2021/07/20 06:06:26;;;;;;;17.8;11.8;;;;;;;17.23;100;98567.15;;;;
2021/07/20 06:16:26;;;;;;;14.6;10.9;;;;;;;16.86;100;98582.94;;;;
2021/07/20 06:26:25;;;;;;;15.9;12;;;;;;;17.11;100;98578.94;;;;
2021/07/20 06:36:25;;;;;;;14.6;9.1;;;;;;;17.2;100;98586.92;;;;
2021/07/20 06:46:25;;;;;;;15.6;12.9;;;;;;;17.24;100;98604.95;;;;
2021/07/20 06:56:25;;;;;;;14;11.6;;;;;;;17.18;100;98608.28;;;;
2021/07/20 07:06:24;;;;;;;14.8;12.4;;;;;;;17.31;100;98615.23;;;;
2021/07/20 07:16:24;;;;;;;14.8;11.7;;;;;;;17.37;100;98603.72;;;;
2021/07/20 07:26:24;;;;;;;17.6;11.1;;;;;;;17.42;100;98606.16;;;;
2021/07/20 07:36:24;;;;;;;13.8;8.8;;;;;;;17.75;100;98608.56;;;;
2021/07/20 07:46:24;;;;;;;11;7.2;;;;;;;17.74;100;98617.88;;;;
2021/07/20 07:56:24;;;;;;;15.4;6.9;;;;;;;17.64;100;98621.14;;;;
2021/07/20 08:06:25;;;;;;;11.9;7.3;;;;;;;17.66;100;98627.05;;;;
2021/07/20 08:16:24;;;;;;;10.1;7.9;;;;;;;17.6;100;98628.43;;;;
2021/07/20 08:26:23;;;;;;;10.4;7.1;;;;;;;17.78;100;98643.28;;;;
2021/07/20 08:36:23;;;;;;;13.5;7.6;;;;;;;17.46;100;98644.39;;;;
2021/07/20 08:46:23;;;;;;;11.6;7.8;;;;;;;17.71;100;98645.84;;;;
2021/07/20 08:56:23;;;;;;;12.1;7.6;;;;;;;18.18;100;98647.72;;;;
2021/07/20 09:06:23;;;;;;;11.2;7.8;;;;;;;18.86;100;98640.62;;;;
2021/07/20 09:16:24;;;;;;;9.3;6.2;;;;;;;19.39;100;98647.08;;;;
2021/07/20 09:26:23;;;;;;;9.6;7.2;;;;;;;19.78;100;98652.45;;;;
2021/07/20 09:36:23;;;;;;;10.8;7.1;;;;;;;20.01;100;98653.2;;;;
2021/07/20 09:46:23;;;;;;;9.1;5.5;;;;;;;19.91;100;98654.62;;;;
2021/07/20 09:56:23;;;;;;;11;6.8;;;;;;;20.57;100;98653.24;;;;
2021/07/20 10:06:23;;;;;;;12.8;7;;;;;;;21.18;100;98655.55;;;;
2021/07/20 10:16:24;;;;;;;9.2;6;;;;;;;20.86;100;98649.67;;;;
2021/07/20 10:26:30;;;;;;;11.8;5.9;;;;;;;21.06;100;98642.88;;;;
2021/07/20 10:36:28;;;;;;;9.5;5;;;;;;;21.46;100;98633.9;;;;
2021/07/20 10:46:31;;;;;;;8.5;6.3;;;;;;;21.28;100;98612.95;;;;
2021/07/20 10:56:29;;;;;;;10.4;5.7;;;;;;;21.74;100;98627.08;;;;
2021/07/20 11:06:28;;;;;;;8;5.1;;;;;;;21.52;100;98626.89;;;;
2021/07/20 11:16:29;;;;;;;8.5;5.7;;;;;;;21.49;100;98638.63;;;;
2021/07/20 11:26:28;;;;;;;10.5;6;;;;;;;21.05;100;98616.63;;;;
2021/07/20 11:36:30;;;;;;;10.8;7;;;;;;;21.1;100;98623.77;;;;
2021/07/20 11:46:31;;;;;;;8.9;6.9;;;;;;;21.01;100;98624.02;;;;
2021/07/20 11:56:28;;;;;;;11;7.3;;;;;;;21.3;100;98611.44;;;;
2021/07/20 12:06:29;;;;;;;8.5;5.3;;;;;;;21.76;100;98589.88;;;;
2021/07/20 12:16:29;;;;;;;14;6.4;;;;;;;21.9;100;98589.98;;;;
2021/07/20 12:26:30;;;;;;;10;5;;;;;;;22.2;100;98586.25;;;;
2021/07/20 12:36:30;;;;;;;11.8;5.7;;;;;;;22.67;100;98572.36;;;;
2021/07/20 12:46:35;;;;;;;9.7;5.8;;;;;;;22.25;100;98564.7;;;;
2021/07/20 12:56:33;;;;;;;10.3;5.7;;;;;;;22.65;100;98563.7;;;;
2021/07/20 13:06:32;;;;;;;11.2;4.9;;;;;;;22.69;100;98569.23;;;;
2021/07/20 13:16:33;;;;;;;8;5.2;;;;;;;23.1;100;98569.71;;;;
2021/07/20 13:26:34;;;;;;;10.5;4.4;;;;;;;23.82;98.01172;98564.63;;;;
2021/07/20 13:36:34;;;;;;;9.4;4.9;;;;;;;24.83;95.05566;98559.21;;;;
2021/07/20 13:46:35;;;;;;;6.9;3.8;;;;;;;24.45;93.92285;98558.19;;;;
2021/07/20 13:56:36;;;;;;;6.9;3.4;;;;;;;24.94;94.12695;98539.84;;;;
2021/07/20 14:06:37;;;;;;;10.8;5.1;;;;;;;25.56;80.50195;98539.79;;;;
2021/07/20 14:16:38;;;;;;;8.5;4.5;;;;;;;25.31;75.55762;98544.7;;;;
2021/07/20 14:26:39;;;;;;;7.1;3.9;;;;;;;24.85;74.24512;98551.31;;;;
2021/07/20 14:36:40;;;;;;;9.6;5.7;;;;;;;24.05;76.15137;98548.45;;;;
2021/07/20 14:46:40;;;;;;;7.3;4.1;;;;;;;22.92;86.22852;98550.44;;;;
2021/07/20 14:56:41;;;;;;;6.6;4.5;;;;;;;22.24;89.39063;98560.39;;;;
2021/07/20 15:06:42;;;;;;;9.6;6.5;;;;;;;21.33;100;98576.98;;;;
2021/07/20 15:16:42;;;;;;;8.9;6.2;;;;;;;20.51;100;98569.86;;;;
2021/07/20 15:26:42;;;;;;;9.8;6.9;;;;;;;19.83;100;98579.06;;;;
2021/07/20 15:36:42;;;;;;;9.3;7.4;;;;;;;19.68;100;98573.77;;;;
2021/07/20 15:46:42;;;;;;;9.2;6.7;;;;;;;20.71;100;98581.42;;;;
2021/07/20 15:56:42;;;;;;;8.9;6.4;;;;;;;20.48;100;98581.53;;;;
2021/07/20 16:06:42;;;;;;;8.8;6.2;;;;;;;20.12;100;98579.47;;;;
2021/07/20 16:16:42;;;;;;;10.5;5.5;;;;;;;19.99;100;98581.66;;;;
2021/07/20 16:26:42;;;;;;;15.2;5;;;;;;;19.61;100;98576.39;;;;
2021/07/20 16:36:42;;;;;;;10;6.1;;;;;;;19.38;100;98574.43;;;;
2021/07/20 16:46:42;;;;;;;7.9;6.2;;;;;;;19.27;100;98578.13;;;;
2021/07/20 16:56:42;;;;;;;12.3;6.3;;;;;;;19.03;100;98584.73;;;;
2021/07/20 17:06:42;;;;;;;9.6;7.5;;;;;;;18.98;100;98585.05;;;;
2021/07/20 17:16:46;;;;;;;10.3;6.8;;;;;;;18.78;100;98595.2;;;;
2021/07/20 17:26:42;;;;;;;9.2;6.2;;;;;;;18.81;100;98594.47;;;;
2021/07/20 17:36:42;;;;;;;11;7;;;;;;;18.73;100;98598.23;;;;
2021/07/20 17:46:42;;;;;;;13.4;8.7;;;;;;;18.62;100;98605.42;;;;
2021/07/20 17:56:42;;;;;;;9.5;6.9;;;;;;;18.44;100;98598.77;;;;
2021/07/20 18:06:42;;;;;;;11.8;7.8;;;;;;;18.3;100;98609.39;;;;
2021/07/20 18:16:42;;;;;;;8.8;6.4;;;;;;;18.2;100;98615.41;;;;
2021/07/20 18:26:42;;;;;;;14.6;9.7;;;;;;;17.87;100;98622.09;;;;
2021/07/20 18:36:42;;;;;;;13.6;8.9;;;;;;;17.89;100;98627.18;;;;
2021/07/20 18:46:42;;;;;;;10.6;8.1;;;;;;;17.7;100;98643.48;;;;
2021/07/20 18:56:41;;;;;;;13.9;8;;;;;;;17.63;100;98659.66;;;;
2021/07/20 19:06:41;;;;;;;11.1;8;;;;;;;17.38;100;98692.49;;;;
2021/07/20 19:16:41;;;;;;;11.1;7.9;;;;;;;17.27;100;98706.96;;;;
2021/07/20 19:26:41;;;;;;;13.9;8.6;;;;;;;16.85;100;98712.8;;;;
2021/07/20 19:36:40;;;;;;;11.7;9.2;;;;;;;16.6;100;98714;;;;
2021/07/20 19:46:40;;;;;;;10.1;7.6;;;;;;;16.41;100;98720.03;;;;
2021/07/20 19:56:40;;;;;;;13.1;8.6;;;;;;;16.2;100;98708.48;;;;
2021/07/20 20:06:40;;;;;;;14;8.4;;;;;;;15.98;100;98696.14;;;;
2021/07/20 20:16:39;;;;;;;11.6;7.9;;;;;;;15.94;100;98692.51;;;;
2021/07/20 20:26:39;;;;;;;10.5;7.7;;;;;;;15.77;100;98689.22;;;;
2021/07/20 20:36:39;;;;;;;12.1;8.7;;;;;;;15.81;100;98695.56;;;;
2021/07/20 20:46:39;;;;;;;9.2;6.1;;;;;;;15.64;100;98698.48;;;;
2021/07/20 20:56:38;;;;;;;13.5;8.6;;;;;;;15.71;100;98699.52;;;;
2021/07/20 21:06:37;;;;;;;10.4;6.9;;;;;;;15.72;100;98703.04;;;;
2021/07/20 21:16:37;;;;;;;10.8;7.1;;;;;;;15.76;100;98710.16;;;;
2021/07/20 21:26:37;;;;;;;9.3;7.3;;;;;;;15.91;100;98717.66;;;;
2021/07/20 21:36:36;;;;;;;12.7;7.4;;;;;;;15.83;100;98713.11;;;;
2021/07/20 21:46:36;;;;;;;9.2;7;;;;;;;15.94;100;98722.41;;;;
2021/07/20 21:56:35;;;;;;;13.6;7.6;;;;;;;15.97;100;98732.6;;;;
2021/07/20 22:06:35;;;;;;;9.5;7.1;;;;;;;16.08;100;98735.66;;;;
2021/07/20 22:16:35;;;;;;;14.1;9;;;;;;;16;100;98736.59;;;;
2021/07/20 22:26:34;;;;;;;14.4;8.5;;;;;;;16;100;98742.8;;;;
2021/07/20 22:36:34;;;;;;;15.7;7.2;;;;;;;15.9;100;98751.4;;;;
2021/07/20 22:46:34;;;;;;;8.4;6;;;;;;;15.93;100;98752.67;;;;
2021/07/20 22:56:33;;;;;;;9.4;6.8;;;;;;;16.01;100;98752.55;;;;
2021/07/20 23:06:33;;;;;;;9.4;6.3;;;;;;;16;100;98763.77;;;;
2021/07/20 23:16:32;;;;;;;17.9;8.5;;;;;;;16.07;100;98772.94;;;;
2021/07/20 23:26:32;;;;;;;11.5;7.2;;;;;;;16.02;100;98778.61;;;;
2021/07/20 23:36:32;;;;;;;12.7;7.1;;;;;;;15.95;100;98775.66;;;;
2021/07/20 23:46:31;;;;;;;10.4;7.5;;;;;;;15.81;100;98785.25;;;;
2021/07/20 23:56:31;;;;;;;9;6.5;;;;;;;15.83;100;98781.05;;;;
